sensor_id;sensor_type;location;lat;lon;timestamp;temperature;humidity
8408;DHT22;4241;48.452;9.216;2023-02-15T00:01:18;2.20;99.90
8408;DHT22;4241;48.452;9.216;2023-02-15T00:03:47;1.90;99.90
8408;DHT22;4241;48.452;9.216;2023-02-15T00:06:15;2.10;99.90
8408;DHT22;4241;48.452;9.216;2023-02-15T00:08:42;2.00;99.90
8408;DHT22;4241;48.452;9.216;2023-02-15T00:11:10;2.00;99.90
8408;DHT22;4241;48.452;9.216;2023-02-15T00:13:38;2.00;99.90
8408;DHT22;4241;48.452;9.216;2023-02-15T00:16:09;1.90;99.90
8408;DHT22;4241;48.452;9.216;2023-02-15T00:18:37;1.90;99.90
8408;DHT22;4241;48.452;9.216;2023-02-15T00:21:06;2.00;99.90
8408;DHT22;4241;48.452;9.216;2023-02-15T00:23:34;1.90;99.90
8408;DHT22;4241;48.452;9.216;2023-02-15T00:26:05;1.90;99.90
8408;DHT22;4241;48.452;9.216;2023-02-15T00:28:32;2.00;99.90
8408;DHT22;4241;48.452;9.216;2023-02-15T00:31:04;1.80;99.90
8408;DHT22;4241;48.452;9.216;2023-02-15T00:33:30;1.90;99.90
8408;DHT22;4241;48.452;9.216;2023-02-15T00:35:58;1.70;99.90
8408;DHT22;4241;48.452;9.216;2023-02-15T00:38:26;1.90;99.90
8408;DHT22;4241;48.452;9.216;2023-02-15T00:40:53;1.90;99.90
8408;DHT22;4241;48.452;9.216;2023-02-15T00:43:20;1.90;99.90
8408;DHT22;4241;48.452;9.216;2023-02-15T00:45:47;1.60;99.90
8408;DHT22;4241;48.452;9.216;2023-02-15T00:48:14;2.00;99.90
8408;DHT22;4241;48.452;9.216;2023-02-15T00:50:40;1.80;99.90
8408;DHT22;4241;48.452;9.216;2023-02-15T00:53:08;1.60;99.90
8408;DHT22;4241;48.452;9.216;2023-02-15T00:55:36;1.70;99.90
8408;DHT22;4241;48.452;9.216;2023-02-15T00:58:05;1.80;99.90
8408;DHT22;4241;48.452;9.216;2023-02-15T01:00:32;1.60;99.90
8408;DHT22;4241;48.452;9.216;2023-02-15T01:02:58;1.50;99.90
8408;DHT22;4241;48.452;9.216;2023-02-15T01:05:25;1.80;99.90
8408;DHT22;4241;48.452;9.216;2023-02-15T01:07:52;2.10;99.90
8408;DHT22;4241;48.452;9.216;2023-02-15T01:10:19;2.10;99.90
8408;DHT22;4241;48.452;9.216;2023-02-15T01:12:47;1.70;99.90
8408;DHT22;4241;48.452;9.216;2023-02-15T01:15:17;1.80;99.90
8408;DHT22;4241;48.452;9.216;2023-02-15T01:17:44;2.10;99.90
8408;DHT22;4241;48.452;9.216;2023-02-15T01:20:16;1.90;99.90
8408;DHT22;4241;48.452;9.216;2023-02-15T01:22:43;1.60;99.90
8408;DHT22;4241;48.452;9.216;2023-02-15T01:25:10;1.70;99.90
8408;DHT22;4241;48.452;9.216;2023-02-15T01:27:37;1.80;99.90
8408;DHT22;4241;48.452;9.216;2023-02-15T01:30:06;2.20;99.90
8408;DHT22;4241;48.452;9.216;2023-02-15T01:32:34;1.60;99.90
8408;DHT22;4241;48.452;9.216;2023-02-15T01:35:01;1.70;99.90
8408;DHT22;4241;48.452;9.216;2023-02-15T01:37:30;1.70;99.90
8408;DHT22;4241;48.452;9.216;2023-02-15T01:39:57;1.60;99.90
8408;DHT22;4241;48.452;9.216;2023-02-15T01:42:26;1.70;99.90
8408;DHT22;4241;48.452;9.216;2023-02-15T01:44:55;1.70;99.90
8408;DHT22;4241;48.452;9.216;2023-02-15T01:47:32;1.70;99.90
8408;DHT22;4241;48.452;9.216;2023-02-15T01:50:04;1.60;99.90
8408;DHT22;4241;48.452;9.216;2023-02-15T01:52:34;1.50;99.90
8408;DHT22;4241;48.452;9.216;2023-02-15T01:55:04;1.80;99.90
8408;DHT22;4241;48.452;9.216;2023-02-15T01:57:31;1.40;99.90
8408;DHT22;4241;48.452;9.216;2023-02-15T02:00:01;1.40;99.90
8408;DHT22;4241;48.452;9.216;2023-02-15T02:02:30;1.50;99.90
8408;DHT22;4241;48.452;9.216;2023-02-15T02:05:00;1.30;99.90
8408;DHT22;4241;48.452;9.216;2023-02-15T02:07:30;1.30;99.90
8408;DHT22;4241;48.452;9.216;2023-02-15T02:09:58;1.20;99.90
8408;DHT22;4241;48.452;9.216;2023-02-15T02:12:25;1.30;99.90
8408;DHT22;4241;48.452;9.216;2023-02-15T02:14:52;1.30;99.90
8408;DHT22;4241;48.452;9.216;2023-02-15T02:17:27;1.50;99.90
8408;DHT22;4241;48.452;9.216;2023-02-15T02:20:38;1.40;99.90
8408;DHT22;4241;48.452;9.216;2023-02-15T02:23:23;1.20;99.90
8408;DHT22;4241;48.452;9.216;2023-02-15T02:26:30;1.40;99.90
8408;DHT22;4241;48.452;9.216;2023-02-15T02:29:38;1.20;99.90
8408;DHT22;4241;48.452;9.216;2023-02-15T02:35:09;1.10;99.90
8408;DHT22;4241;48.452;9.216;2023-02-15T02:37:46;1.20;99.90
8408;DHT22;4241;48.452;9.216;2023-02-15T02:40:19;2.30;99.90
8408;DHT22;4241;48.452;9.216;2023-02-15T02:42:53;1.10;99.90
8408;DHT22;4241;48.452;9.216;2023-02-15T02:45:25;1.20;99.90
8408;DHT22;4241;48.452;9.216;2023-02-15T02:47:59;1.20;99.90
8408;DHT22;4241;48.452;9.216;2023-02-15T02:50:29;1.00;99.90
8408;DHT22;4241;48.452;9.216;2023-02-15T02:52:58;1.20;99.90
8408;DHT22;4241;48.452;9.216;2023-02-15T02:55:28;1.30;99.90
8408;DHT22;4241;48.452;9.216;2023-02-15T02:58:02;0.90;99.90
8408;DHT22;4241;48.452;9.216;2023-02-15T03:00:32;1.00;99.90
8408;DHT22;4241;48.452;9.216;2023-02-15T03:03:04;0.90;99.90
8408;DHT22;4241;48.452;9.216;2023-02-15T03:05:34;1.10;99.90
8408;DHT22;4241;48.452;9.216;2023-02-15T03:08:03;0.40;99.90
8408;DHT22;4241;48.452;9.216;2023-02-15T03:10:36;0.90;99.90
8408;DHT22;4241;48.452;9.216;2023-02-15T03:13:03;0.90;99.90
8408;DHT22;4241;48.452;9.216;2023-02-15T03:15:33;0.80;99.90
8408;DHT22;4241;48.452;9.216;2023-02-15T03:18:17;0.70;99.90
8408;DHT22;4241;48.452;9.216;2023-02-15T03:20:46;0.70;99.90
8408;DHT22;4241;48.452;9.216;2023-02-15T03:23:17;0.80;99.90
8408;DHT22;4241;48.452;9.216;2023-02-15T03:25:48;0.90;99.90
8408;DHT22;4241;48.452;9.216;2023-02-15T03:28:20;0.90;99.90
8408;DHT22;4241;48.452;9.216;2023-02-15T03:30:51;0.90;99.90
8408;DHT22;4241;48.452;9.216;2023-02-15T03:33:21;0.70;99.90
8408;DHT22;4241;48.452;9.216;2023-02-15T03:35:54;0.70;99.90
8408;DHT22;4241;48.452;9.216;2023-02-15T03:38:29;0.70;99.90
8408;DHT22;4241;48.452;9.216;2023-02-15T03:40:59;0.60;99.90
8408;DHT22;4241;48.452;9.216;2023-02-15T03:43:45;0.90;99.90
8408;DHT22;4241;48.452;9.216;2023-02-15T03:46:19;0.50;99.90
8408;DHT22;4241;48.452;9.216;2023-02-15T03:48:53;0.50;99.90
8408;DHT22;4241;48.452;9.216;2023-02-15T03:51:26;0.60;99.90
8408;DHT22;4241;48.452;9.216;2023-02-15T03:54:02;0.50;99.90
8408;DHT22;4241;48.452;9.216;2023-02-15T03:56:30;0.40;99.90
8408;DHT22;4241;48.452;9.216;2023-02-15T03:58:58;0.50;99.90
8408;DHT22;4241;48.452;9.216;2023-02-15T04:01:59;0.40;99.90
8408;DHT22;4241;48.452;9.216;2023-02-15T04:04:32;0.30;99.90
8408;DHT22;4241;48.452;9.216;2023-02-15T04:07:05;0.40;99.90
8408;DHT22;4241;48.452;9.216;2023-02-15T04:09:32;0.50;99.90
8408;DHT22;4241;48.452;9.216;2023-02-15T04:12:17;0.70;99.90
8408;DHT22;4241;48.452;9.216;2023-02-15T04:14:44;0.30;99.90
8408;DHT22;4241;48.452;9.216;2023-02-15T04:17:28;0.20;99.90
8408;DHT22;4241;48.452;9.216;2023-02-15T04:19:54;0.20;99.90
8408;DHT22;4241;48.452;9.216;2023-02-15T04:22:40;0.20;99.90
8408;DHT22;4241;48.452;9.216;2023-02-15T04:25:25;0.60;99.90
8408;DHT22;4241;48.452;9.216;2023-02-15T04:27:53;0.20;99.90
8408;DHT22;4241;48.452;9.216;2023-02-15T04:30:22;0.20;99.90
8408;DHT22;4241;48.452;9.216;2023-02-15T04:32:49;0.20;99.90
8408;DHT22;4241;48.452;9.216;2023-02-15T04:35:17;0.20;99.90
8408;DHT22;4241;48.452;9.216;2023-02-15T04:37:45;0.30;99.90
8408;DHT22;4241;48.452;9.216;2023-02-15T04:40:14;0.40;99.90
8408;DHT22;4241;48.452;9.216;2023-02-15T04:42:41;0.70;99.90
8408;DHT22;4241;48.452;9.216;2023-02-15T04:45:08;0.40;99.90
8408;DHT22;4241;48.452;9.216;2023-02-15T04:47:35;0.70;99.90
8408;DHT22;4241;48.452;9.216;2023-02-15T04:50:02;0.30;99.90
8408;DHT22;4241;48.452;9.216;2023-02-15T04:52:29;0.30;99.90
8408;DHT22;4241;48.452;9.216;2023-02-15T04:54:57;0.80;99.90
8408;DHT22;4241;48.452;9.216;2023-02-15T04:57:24;0.30;99.90
8408;DHT22;4241;48.452;9.216;2023-02-15T04:59:51;0.40;99.90
8408;DHT22;4241;48.452;9.216;2023-02-15T05:02:18;0.50;99.90
8408;DHT22;4241;48.452;9.216;2023-02-15T05:04:45;0.30;99.90
8408;DHT22;4241;48.452;9.216;2023-02-15T05:07:11;0.30;99.90
8408;DHT22;4241;48.452;9.216;2023-02-15T05:09:40;0.10;99.90
8408;DHT22;4241;48.452;9.216;2023-02-15T05:12:08;0.20;99.90
8408;DHT22;4241;48.452;9.216;2023-02-15T05:14:35;0.50;99.90
8408;DHT22;4241;48.452;9.216;2023-02-15T05:17:01;0.10;99.90
8408;DHT22;4241;48.452;9.216;2023-02-15T05:19:30;0.10;99.90
8408;DHT22;4241;48.452;9.216;2023-02-15T05:21:57;0.50;99.90
8408;DHT22;4241;48.452;9.216;2023-02-15T05:24:24;0.50;99.90
8408;DHT22;4241;48.452;9.216;2023-02-15T05:27:10;0.30;99.90
8408;DHT22;4241;48.452;9.216;2023-02-15T05:29:55;0.30;99.90
8408;DHT22;4241;48.452;9.216;2023-02-15T05:32:22;0.20;99.90
8408;DHT22;4241;48.452;9.216;2023-02-15T05:34:48;0.10;99.90
8408;DHT22;4241;48.452;9.216;2023-02-15T05:37:15;0.10;99.90
8408;DHT22;4241;48.452;9.216;2023-02-15T05:39:42;0.20;99.90
8408;DHT22;4241;48.452;9.216;2023-02-15T05:42:10;0.10;99.90
8408;DHT22;4241;48.452;9.216;2023-02-15T05:44:37;0.10;99.90
8408;DHT22;4241;48.452;9.216;2023-02-15T05:47:04;0.30;99.90
8408;DHT22;4241;48.452;9.216;2023-02-15T05:49:32;0.20;99.90
8408;DHT22;4241;48.452;9.216;2023-02-15T05:51:59;0.40;99.90
8408;DHT22;4241;48.452;9.216;2023-02-15T05:54:26;0.20;99.90
8408;DHT22;4241;48.452;9.216;2023-02-15T05:56:54;0.20;99.90
8408;DHT22;4241;48.452;9.216;2023-02-15T05:59:22;0.20;99.90
8408;DHT22;4241;48.452;9.216;2023-02-15T06:01:48;0.60;99.90
8408;DHT22;4241;48.452;9.216;2023-02-15T06:04:15;0.20;99.90
8408;DHT22;4241;48.452;9.216;2023-02-15T06:06:42;0.10;99.90
8408;DHT22;4241;48.452;9.216;2023-02-15T06:09:10;0.40;99.90
8408;DHT22;4241;48.452;9.216;2023-02-15T06:11:37;0.30;99.90
8408;DHT22;4241;48.452;9.216;2023-02-15T06:14:04;0.30;99.90
8408;DHT22;4241;48.452;9.216;2023-02-15T06:16:32;0.10;99.90
8408;DHT22;4241;48.452;9.216;2023-02-15T06:18:58;0.00;99.90
8408;DHT22;4241;48.452;9.216;2023-02-15T06:21:27;0.10;99.90
8408;DHT22;4241;48.452;9.216;2023-02-15T06:23:53;0.20;99.90
8408;DHT22;4241;48.452;9.216;2023-02-15T06:26:20;0.10;99.90
8408;DHT22;4241;48.452;9.216;2023-02-15T06:28:47;0.10;99.90
8408;DHT22;4241;48.452;9.216;2023-02-15T06:31:14;0.20;99.90
8408;DHT22;4241;48.452;9.216;2023-02-15T06:33:42;0.30;99.90
8408;DHT22;4241;48.452;9.216;2023-02-15T06:36:09;0.20;99.90
8408;DHT22;4241;48.452;9.216;2023-02-15T06:38:36;0.20;99.90
8408;DHT22;4241;48.452;9.216;2023-02-15T06:41:03;0.30;99.90
8408;DHT22;4241;48.452;9.216;2023-02-15T06:43:30;0.20;99.90
8408;DHT22;4241;48.452;9.216;2023-02-15T06:45:57;0.20;99.90
8408;DHT22;4241;48.452;9.216;2023-02-15T06:48:24;0.40;99.90
8408;DHT22;4241;48.452;9.216;2023-02-15T06:50:52;0.30;99.90
8408;DHT22;4241;48.452;9.216;2023-02-15T06:53:19;0.30;99.90
8408;DHT22;4241;48.452;9.216;2023-02-15T06:55:46;0.30;99.90
8408;DHT22;4241;48.452;9.216;2023-02-15T06:58:13;1.00;99.90
8408;DHT22;4241;48.452;9.216;2023-02-15T07:00:39;0.60;99.90
8408;DHT22;4241;48.452;9.216;2023-02-15T07:03:07;0.60;99.90
8408;DHT22;4241;48.452;9.216;2023-02-15T07:05:34;0.60;99.90
8408;DHT22;4241;48.452;9.216;2023-02-15T07:08:03;0.50;99.90
8408;DHT22;4241;48.452;9.216;2023-02-15T07:10:29;0.50;99.90
8408;DHT22;4241;48.452;9.216;2023-02-15T07:12:56;0.60;99.90
8408;DHT22;4241;48.452;9.216;2023-02-15T07:15:22;0.80;99.90
8408;DHT22;4241;48.452;9.216;2023-02-15T07:17:50;0.70;99.90
8408;DHT22;4241;48.452;9.216;2023-02-15T07:20:18;0.70;99.90
8408;DHT22;4241;48.452;9.216;2023-02-15T07:22:45;0.60;99.90
8408;DHT22;4241;48.452;9.216;2023-02-15T07:25:14;0.70;99.90
8408;DHT22;4241;48.452;9.216;2023-02-15T07:27:41;0.80;99.90
8408;DHT22;4241;48.452;9.216;2023-02-15T07:30:10;0.80;99.90
8408;DHT22;4241;48.452;9.216;2023-02-15T07:32:37;0.60;99.90
8408;DHT22;4241;48.452;9.216;2023-02-15T07:35:25;0.90;99.90
8408;DHT22;4241;48.452;9.216;2023-02-15T07:37:52;1.30;99.90
8408;DHT22;4241;48.452;9.216;2023-02-15T07:40:20;0.90;99.90
8408;DHT22;4241;48.452;9.216;2023-02-15T07:42:49;1.00;99.90
8408;DHT22;4241;48.452;9.216;2023-02-15T07:45:18;0.90;99.90
8408;DHT22;4241;48.452;9.216;2023-02-15T07:47:44;1.00;99.90
8408;DHT22;4241;48.452;9.216;2023-02-15T07:50:11;1.00;99.90
8408;DHT22;4241;48.452;9.216;2023-02-15T07:52:38;1.30;99.90
8408;DHT22;4241;48.452;9.216;2023-02-15T07:55:05;1.20;99.90
8408;DHT22;4241;48.452;9.216;2023-02-15T07:57:35;1.00;99.90
8408;DHT22;4241;48.452;9.216;2023-02-15T08:00:02;1.10;99.90
8408;DHT22;4241;48.452;9.216;2023-02-15T08:02:29;1.10;99.90
8408;DHT22;4241;48.452;9.216;2023-02-15T08:04:56;1.50;99.90
8408;DHT22;4241;48.452;9.216;2023-02-15T08:07:23;1.50;99.90
8408;DHT22;4241;48.452;9.216;2023-02-15T08:09:49;1.30;99.90
8408;DHT22;4241;48.452;9.216;2023-02-15T08:12:16;1.70;99.90
8408;DHT22;4241;48.452;9.216;2023-02-15T08:14:44;1.70;99.90
8408;DHT22;4241;48.452;9.216;2023-02-15T08:17:11;1.50;99.90
8408;DHT22;4241;48.452;9.216;2023-02-15T08:19:38;1.40;99.90
8408;DHT22;4241;48.452;9.216;2023-02-15T08:22:07;1.70;99.90
8408;DHT22;4241;48.452;9.216;2023-02-15T08:24:36;1.50;99.90
8408;DHT22;4241;48.452;9.216;2023-02-15T08:27:04;1.60;99.90
8408;DHT22;4241;48.452;9.216;2023-02-15T08:29:32;1.90;99.90
8408;DHT22;4241;48.452;9.216;2023-02-15T08:32:02;1.80;99.90
8408;DHT22;4241;48.452;9.216;2023-02-15T08:34:32;1.60;99.90
8408;DHT22;4241;48.452;9.216;2023-02-15T08:37:00;1.60;99.90
8408;DHT22;4241;48.452;9.216;2023-02-15T08:39:27;1.50;99.90
8408;DHT22;4241;48.452;9.216;2023-02-15T08:41:54;1.70;99.90
8408;DHT22;4241;48.452;9.216;2023-02-15T08:44:21;1.70;99.90
8408;DHT22;4241;48.452;9.216;2023-02-15T08:46:48;2.00;99.90
8408;DHT22;4241;48.452;9.216;2023-02-15T08:49:18;2.10;99.90
8408;DHT22;4241;48.452;9.216;2023-02-15T08:51:47;1.80;99.90
8408;DHT22;4241;48.452;9.216;2023-02-15T08:54:16;2.00;99.90
8408;DHT22;4241;48.452;9.216;2023-02-15T08:56:44;2.40;99.90
8408;DHT22;4241;48.452;9.216;2023-02-15T08:59:13;2.10;99.90
8408;DHT22;4241;48.452;9.216;2023-02-15T09:01:42;2.60;99.90
8408;DHT22;4241;48.452;9.216;2023-02-15T09:04:10;2.50;99.90
8408;DHT22;4241;48.452;9.216;2023-02-15T09:06:40;2.60;99.90
8408;DHT22;4241;48.452;9.216;2023-02-15T09:09:08;2.80;99.90
8408;DHT22;4241;48.452;9.216;2023-02-15T09:11:36;2.90;99.90
8408;DHT22;4241;48.452;9.216;2023-02-15T09:14:05;3.10;99.90
8408;DHT22;4241;48.452;9.216;2023-02-15T09:16:35;3.10;99.90
8408;DHT22;4241;48.452;9.216;2023-02-15T09:19:02;3.10;99.90
8408;DHT22;4241;48.452;9.216;2023-02-15T09:21:31;3.30;99.90
8408;DHT22;4241;48.452;9.216;2023-02-15T09:24:01;3.30;99.90
8408;DHT22;4241;48.452;9.216;2023-02-15T09:26:39;3.50;99.90
8408;DHT22;4241;48.452;9.216;2023-02-15T09:29:07;4.10;99.90
8408;DHT22;4241;48.452;9.216;2023-02-15T09:31:37;3.80;99.90
8408;DHT22;4241;48.452;9.216;2023-02-15T09:34:04;4.00;99.90
8408;DHT22;4241;48.452;9.216;2023-02-15T09:36:33;4.10;99.90
8408;DHT22;4241;48.452;9.216;2023-02-15T09:39:07;4.30;99.90
8408;DHT22;4241;48.452;9.216;2023-02-15T09:44:40;4.60;99.90
8408;DHT22;4241;48.452;9.216;2023-02-15T09:47:30;4.80;99.90
8408;DHT22;4241;48.452;9.216;2023-02-15T09:50:06;4.90;99.90
8408;DHT22;4241;48.452;9.216;2023-02-15T09:52:46;5.50;99.90
8408;DHT22;4241;48.452;9.216;2023-02-15T09:55:24;5.60;99.90
8408;DHT22;4241;48.452;9.216;2023-02-15T09:58:01;5.70;99.90
8408;DHT22;4241;48.452;9.216;2023-02-15T10:00:38;5.90;99.90
8408;DHT22;4241;48.452;9.216;2023-02-15T10:03:17;6.50;99.90
8408;DHT22;4241;48.452;9.216;2023-02-15T10:05:54;6.40;99.90
8408;DHT22;4241;48.452;9.216;2023-02-15T10:08:48;6.60;99.90
8408;DHT22;4241;48.452;9.216;2023-02-15T10:11:21;6.80;99.90
8408;DHT22;4241;48.452;9.216;2023-02-15T10:14:17;7.10;99.90
8408;DHT22;4241;48.452;9.216;2023-02-15T10:16:53;7.30;99.90
8408;DHT22;4241;48.452;9.216;2023-02-15T10:19:31;7.60;99.90
8408;DHT22;4241;48.452;9.216;2023-02-15T10:22:10;8.00;99.90
8408;DHT22;4241;48.452;9.216;2023-02-15T10:24:59;7.90;99.90
8408;DHT22;4241;48.452;9.216;2023-02-15T10:27:33;8.10;99.90
8408;DHT22;4241;48.452;9.216;2023-02-15T10:30:07;8.70;99.90
8408;DHT22;4241;48.452;9.216;2023-02-15T10:32:40;8.50;99.90
8408;DHT22;4241;48.452;9.216;2023-02-15T10:35:14;9.00;99.90
8408;DHT22;4241;48.452;9.216;2023-02-15T10:38:01;9.20;99.90
8408;DHT22;4241;48.452;9.216;2023-02-15T10:40:37;9.20;99.90
8408;DHT22;4241;48.452;9.216;2023-02-15T10:43:41;9.70;99.90
8408;DHT22;4241;48.452;9.216;2023-02-15T10:46:17;9.60;99.90
8408;DHT22;4241;48.452;9.216;2023-02-15T10:51:45;10.40;99.90
8408;DHT22;4241;48.452;9.216;2023-02-15T10:54:24;10.60;99.90
8408;DHT22;4241;48.452;9.216;2023-02-15T10:57:02;10.70;99.90
8408;DHT22;4241;48.452;9.216;2023-02-15T10:59:57;10.80;99.90
8408;DHT22;4241;48.452;9.216;2023-02-15T11:02:31;10.80;99.90
8408;DHT22;4241;48.452;9.216;2023-02-15T11:05:20;11.40;99.90
8408;DHT22;4241;48.452;9.216;2023-02-15T11:07:54;11.20;98.30
8408;DHT22;4241;48.452;9.216;2023-02-15T11:10:28;11.70;98.70
8408;DHT22;4241;48.452;9.216;2023-02-15T11:12:57;11.80;98.00
8408;DHT22;4241;48.452;9.216;2023-02-15T11:15:30;12.00;97.30
8408;DHT22;4241;48.452;9.216;2023-02-15T11:18:02;11.70;96.30
8408;DHT22;4241;48.452;9.216;2023-02-15T11:20:34;11.80;96.30
8408;DHT22;4241;48.452;9.216;2023-02-15T11:23:12;11.90;97.20
8408;DHT22;4241;48.452;9.216;2023-02-15T11:25:44;12.30;95.90
8408;DHT22;4241;48.452;9.216;2023-02-15T11:28:18;12.00;95.90
8408;DHT22;4241;48.452;9.216;2023-02-15T11:30:49;12.10;96.90
8408;DHT22;4241;48.452;9.216;2023-02-15T11:33:21;12.20;93.50
8408;DHT22;4241;48.452;9.216;2023-02-15T11:35:50;12.40;94.20
8408;DHT22;4241;48.452;9.216;2023-02-15T11:38:21;12.50;94.90
8408;DHT22;4241;48.452;9.216;2023-02-15T11:40:51;12.70;95.80
8408;DHT22;4241;48.452;9.216;2023-02-15T11:43:24;12.90;94.80
8408;DHT22;4241;48.452;9.216;2023-02-15T11:45:54;13.00;94.20
8408;DHT22;4241;48.452;9.216;2023-02-15T11:48:21;12.90;93.00
8408;DHT22;4241;48.452;9.216;2023-02-15T11:50:48;13.30;92.10
8408;DHT22;4241;48.452;9.216;2023-02-15T11:53:16;13.30;92.50
8408;DHT22;4241;48.452;9.216;2023-02-15T11:55:45;13.40;88.50
8408;DHT22;4241;48.452;9.216;2023-02-15T11:58:23;13.40;91.30
8408;DHT22;4241;48.452;9.216;2023-02-15T12:00:58;13.60;91.30
8408;DHT22;4241;48.452;9.216;2023-02-15T12:03:43;13.60;84.40
8408;DHT22;4241;48.452;9.216;2023-02-15T12:06:17;13.80;91.00
8408;DHT22;4241;48.452;9.216;2023-02-15T12:08:51;13.80;90.40
8408;DHT22;4241;48.452;9.216;2023-02-15T12:11:22;13.80;84.90
8408;DHT22;4241;48.452;9.216;2023-02-15T12:13:56;13.80;80.30
8408;DHT22;4241;48.452;9.216;2023-02-15T12:16:25;13.90;90.10
8408;DHT22;4241;48.452;9.216;2023-02-15T12:18:55;13.80;80.90
8408;DHT22;4241;48.452;9.216;2023-02-15T12:21:28;13.70;84.70
8408;DHT22;4241;48.452;9.216;2023-02-15T12:23:58;13.60;86.60
8408;DHT22;4241;48.452;9.216;2023-02-15T12:26:28;13.50;85.40
8408;DHT22;4241;48.452;9.216;2023-02-15T12:28:58;13.30;87.70
8408;DHT22;4241;48.452;9.216;2023-02-15T12:31:31;13.10;86.40
8408;DHT22;4241;48.452;9.216;2023-02-15T12:34:02;12.90;86.70
8408;DHT22;4241;48.452;9.216;2023-02-15T12:36:33;12.80;76.50
8408;DHT22;4241;48.452;9.216;2023-02-15T12:39:21;12.80;85.30
8408;DHT22;4241;48.452;9.216;2023-02-15T12:42:00;12.60;84.30
8408;DHT22;4241;48.452;9.216;2023-02-15T12:44:28;12.60;76.80
8408;DHT22;4241;48.452;9.216;2023-02-15T12:46:59;12.50;76.70
8408;DHT22;4241;48.452;9.216;2023-02-15T12:49:27;12.30;85.00
8408;DHT22;4241;48.452;9.216;2023-02-15T12:51:56;12.30;83.90
8408;DHT22;4241;48.452;9.216;2023-02-15T12:54:30;12.40;86.40
8408;DHT22;4241;48.452;9.216;2023-02-15T12:56:58;12.20;83.80
8408;DHT22;4241;48.452;9.216;2023-02-15T12:59:25;12.10;84.00
8408;DHT22;4241;48.452;9.216;2023-02-15T13:01:52;12.10;84.60
8408;DHT22;4241;48.452;9.216;2023-02-15T13:04:25;12.20;86.20
8408;DHT22;4241;48.452;9.216;2023-02-15T13:06:54;12.10;86.30
8408;DHT22;4241;48.452;9.216;2023-02-15T13:09:26;12.20;76.30
8408;DHT22;4241;48.452;9.216;2023-02-15T13:12:10;12.20;77.20
8408;DHT22;4241;48.452;9.216;2023-02-15T13:14:43;12.20;78.40
8408;DHT22;4241;48.452;9.216;2023-02-15T13:17:12;12.10;75.50
8408;DHT22;4241;48.452;9.216;2023-02-15T13:19:44;12.10;84.10
8408;DHT22;4241;48.452;9.216;2023-02-15T13:22:14;12.10;86.80
8408;DHT22;4241;48.452;9.216;2023-02-15T13:24:45;12.10;85.30
8408;DHT22;4241;48.452;9.216;2023-02-15T13:27:16;12.00;87.20
8408;DHT22;4241;48.452;9.216;2023-02-15T13:29:44;12.00;86.10
8408;DHT22;4241;48.452;9.216;2023-02-15T13:32:22;12.00;78.10
8408;DHT22;4241;48.452;9.216;2023-02-15T13:34:53;12.00;84.30
8408;DHT22;4241;48.452;9.216;2023-02-15T13:37:33;12.00;76.10
8408;DHT22;4241;48.452;9.216;2023-02-15T13:40:07;12.10;84.30
8408;DHT22;4241;48.452;9.216;2023-02-15T13:42:40;12.10;76.50
8408;DHT22;4241;48.452;9.216;2023-02-15T13:45:16;12.00;84.30
8408;DHT22;4241;48.452;9.216;2023-02-15T13:47:53;12.10;83.70
8408;DHT22;4241;48.452;9.216;2023-02-15T13:50:44;12.00;82.40
8408;DHT22;4241;48.452;9.216;2023-02-15T13:53:24;12.00;74.30
8408;DHT22;4241;48.452;9.216;2023-02-15T13:55:55;12.00;82.80
8408;DHT22;4241;48.452;9.216;2023-02-15T13:58:39;12.00;74.70
8408;DHT22;4241;48.452;9.216;2023-02-15T14:01:10;12.00;79.40
8408;DHT22;4241;48.452;9.216;2023-02-15T14:03:59;11.80;79.70
8408;DHT22;4241;48.452;9.216;2023-02-15T14:06:42;11.90;71.40
8408;DHT22;4241;48.452;9.216;2023-02-15T14:09:16;11.90;69.30
8408;DHT22;4241;48.452;9.216;2023-02-15T14:11:51;11.90;69.20
8408;DHT22;4241;48.452;9.216;2023-02-15T14:14:46;11.80;75.90
8408;DHT22;4241;48.452;9.216;2023-02-15T14:17:22;11.80;76.30
8408;DHT22;4241;48.452;9.216;2023-02-15T14:19:54;11.80;77.30
8408;DHT22;4241;48.452;9.216;2023-02-15T14:22:29;11.80;75.70
8408;DHT22;4241;48.452;9.216;2023-02-15T14:25:05;11.80;75.60
8408;DHT22;4241;48.452;9.216;2023-02-15T14:27:49;11.80;66.70
8408;DHT22;4241;48.452;9.216;2023-02-15T14:30:22;11.90;72.40
8408;DHT22;4241;48.452;9.216;2023-02-15T14:32:53;11.90;65.80
8408;DHT22;4241;48.452;9.216;2023-02-15T14:35:23;12.00;71.10
8408;DHT22;4241;48.452;9.216;2023-02-15T14:37:57;12.00;70.30
8408;DHT22;4241;48.452;9.216;2023-02-15T14:40:33;11.90;69.30
8408;DHT22;4241;48.452;9.216;2023-02-15T14:43:27;12.10;70.50
8408;DHT22;4241;48.452;9.216;2023-02-15T14:46:02;12.10;62.10
8408;DHT22;4241;48.452;9.216;2023-02-15T14:48:32;12.10;73.50
8408;DHT22;4241;48.452;9.216;2023-02-15T14:51:00;12.10;73.50
8408;DHT22;4241;48.452;9.216;2023-02-15T14:53:46;12.10;65.20
8408;DHT22;4241;48.452;9.216;2023-02-15T14:56:24;12.10;75.30
8408;DHT22;4241;48.452;9.216;2023-02-15T14:59:15;12.10;78.10
8408;DHT22;4241;48.452;9.216;2023-02-15T15:01:52;12.10;79.00
8408;DHT22;4241;48.452;9.216;2023-02-15T15:04:26;12.00;78.90
8408;DHT22;4241;48.452;9.216;2023-02-15T15:07:01;12.00;70.70
8408;DHT22;4241;48.452;9.216;2023-02-15T15:09:30;12.00;80.50
8408;DHT22;4241;48.452;9.216;2023-02-15T15:12:14;11.90;80.00
8408;DHT22;4241;48.452;9.216;2023-02-15T15:14:43;12.00;71.80
8408;DHT22;4241;48.452;9.216;2023-02-15T15:17:12;11.90;79.70
8408;DHT22;4241;48.452;9.216;2023-02-15T15:20:00;11.90;70.00
8408;DHT22;4241;48.452;9.216;2023-02-15T15:22:29;11.90;79.80
8408;DHT22;4241;48.452;9.216;2023-02-15T15:24:58;11.80;79.60
8408;DHT22;4241;48.452;9.216;2023-02-15T15:27:43;11.90;80.60
8408;DHT22;4241;48.452;9.216;2023-02-15T15:30:48;12.00;82.00
8408;DHT22;4241;48.452;9.216;2023-02-15T15:33:46;11.80;82.10
8408;DHT22;4241;48.452;9.216;2023-02-15T15:39:21;11.70;74.80
8408;DHT22;4241;48.452;9.216;2023-02-15T15:42:01;11.50;80.70
8408;DHT22;4241;48.452;9.216;2023-02-15T15:44:59;11.50;84.70
8408;DHT22;4241;48.452;9.216;2023-02-15T15:47:44;11.50;85.40
8408;DHT22;4241;48.452;9.216;2023-02-15T15:50:17;11.20;86.00
8408;DHT22;4241;48.452;9.216;2023-02-15T15:52:50;11.20;86.90
8408;DHT22;4241;48.452;9.216;2023-02-15T15:55:19;11.00;87.90
8408;DHT22;4241;48.452;9.216;2023-02-15T15:57:51;11.00;88.30
8408;DHT22;4241;48.452;9.216;2023-02-15T16:00:32;10.80;88.90
8408;DHT22;4241;48.452;9.216;2023-02-15T16:03:00;10.80;90.00
8408;DHT22;4241;48.452;9.216;2023-02-15T16:05:35;10.80;81.30
8408;DHT22;4241;48.452;9.216;2023-02-15T16:10:30;10.50;90.90
8408;DHT22;4241;48.452;9.216;2023-02-15T16:13:01;10.40;91.20
8408;DHT22;4241;48.452;9.216;2023-02-15T16:15:34;10.20;91.10
8408;DHT22;4241;48.452;9.216;2023-02-15T16:18:02;10.10;91.40
8408;DHT22;4241;48.452;9.216;2023-02-15T16:20:31;10.10;91.80
8408;DHT22;4241;48.452;9.216;2023-02-15T16:23:19;9.90;90.40
8408;DHT22;4241;48.452;9.216;2023-02-15T16:25:57;10.00;85.40
8408;DHT22;4241;48.452;9.216;2023-02-15T16:28:30;9.70;91.80
8408;DHT22;4241;48.452;9.216;2023-02-15T16:31:06;9.70;83.70
8408;DHT22;4241;48.452;9.216;2023-02-15T16:33:37;9.70;91.10
8408;DHT22;4241;48.452;9.216;2023-02-15T16:36:05;9.60;90.90
8408;DHT22;4241;48.452;9.216;2023-02-15T16:39:07;9.40;91.70
8408;DHT22;4241;48.452;9.216;2023-02-15T16:41:35;9.10;93.20
8408;DHT22;4241;48.452;9.216;2023-02-15T16:44:07;9.10;91.80
8408;DHT22;4241;48.452;9.216;2023-02-15T16:46:40;9.00;91.60
8408;DHT22;4241;48.452;9.216;2023-02-15T16:49:19;8.80;91.60
8408;DHT22;4241;48.452;9.216;2023-02-15T16:51:55;8.80;92.40
8408;DHT22;4241;48.452;9.216;2023-02-15T16:54:23;8.60;92.80
8408;DHT22;4241;48.452;9.216;2023-02-15T16:56:51;8.60;94.30
8408;DHT22;4241;48.452;9.216;2023-02-15T16:59:31;8.60;93.30